sensor_id;sensor_type;location;lat;lon;timestamp;pressure;altitude;pressure_sealevel;temperature;humidity
77325;BME280;66387;53.440;10.390;2023-06-10T00:01:39;101220.00;;;14.14;81.28
77325;BME280;66387;53.440;10.390;2023-06-10T00:04:04;101229.06;;;14.44;80.36
77325;BME280;66387;53.440;10.390;2023-06-10T00:06:30;101214.44;;;14.33;80.03
77325;BME280;66387;53.440;10.390;2023-06-10T00:09:01;101217.31;;;14.19;80.56
77325;BME280;66387;53.440;10.390;2023-06-10T00:11:26;101215.09;;;13.98;81.04
77325;BME280;66387;53.440;10.390;2023-06-10T00:13:51;101222.66;;;14.13;80.83
77325;BME280;66387;53.440;10.390;2023-06-10T00:16:17;101217.25;;;14.22;79.89
77325;BME280;66387;53.440;10.390;2023-06-10T00:18:43;101211.41;;;14.09;80.35
77325;BME280;66387;53.440;10.390;2023-06-10T00:21:09;101220.00;;;14.14;80.18
77325;BME280;66387;53.440;10.390;2023-06-10T00:23:34;101217.47;;;14.10;79.71
77325;BME280;66387;53.440;10.390;2023-06-10T00:26:03;101212.25;;;14.10;80.31
77325;BME280;66387;53.440;10.390;2023-06-10T00:28:28;101215.03;;;14.01;79.98
77325;BME280;66387;53.440;10.390;2023-06-10T00:30:53;101217.56;;;14.04;80.28
77325;BME280;66387;53.440;10.390;2023-06-10T00:33:18;101211.50;;;14.03;79.77
77325;BME280;66387;53.440;10.390;2023-06-10T00:35:44;101231.75;;;13.89;79.95
77325;BME280;66387;53.440;10.390;2023-06-10T00:38:09;101222.19;;;13.88;79.98
77325;BME280;66387;53.440;10.390;2023-06-10T00:40:40;101230.88;;;13.89;79.83
77325;BME280;66387;53.440;10.390;2023-06-10T00:43:06;101221.19;;;13.98;79.54
77325;BME280;66387;53.440;10.390;2023-06-10T00:45:32;101228.16;;;13.96;79.82
77325;BME280;66387;53.440;10.390;2023-06-10T00:47:58;101230.81;;;13.93;79.66
77325;BME280;66387;53.440;10.390;2023-06-10T00:50:24;101231.06;;;13.80;80.11
77325;BME280;66387;53.440;10.390;2023-06-10T00:52:50;101232.56;;;13.94;79.35
77325;BME280;66387;53.440;10.390;2023-06-10T00:55:17;101226.41;;;13.95;78.65
77325;BME280;66387;53.440;10.390;2023-06-10T00:57:44;101232.00;;;13.74;79.61
77325;BME280;66387;53.440;10.390;2023-06-10T01:00:11;101236.22;;;13.84;79.19
77325;BME280;66387;53.440;10.390;2023-06-10T01:02:37;101235.53;;;13.71;79.92
77325;BME280;66387;53.440;10.390;2023-06-10T01:05:02;101234.66;;;13.71;80.11
77325;BME280;66387;53.440;10.390;2023-06-10T01:07:34;101232.00;;;13.75;79.41
77325;BME280;66387;53.440;10.390;2023-06-10T01:13:11;101220.81;;;13.69;79.22
77325;BME280;66387;53.440;10.390;2023-06-10T01:15:37;101229.78;;;13.50;80.27
77325;BME280;66387;53.440;10.390;2023-06-10T01:18:07;101229.56;;;13.63;79.55
77325;BME280;66387;53.440;10.390;2023-06-10T01:20:41;101226.09;;;13.63;78.78
77325;BME280;66387;53.440;10.390;2023-06-10T01:23:09;101221.41;;;13.30;80.50
77325;BME280;66387;53.440;10.390;2023-06-10T01:25:38;101232.69;;;13.30;80.62
77325;BME280;66387;53.440;10.390;2023-06-10T01:28:14;101238.97;;;13.18;80.90
77325;BME280;66387;53.440;10.390;2023-06-10T01:30:55;101236.25;;;13.23;80.49
77325;BME280;66387;53.440;10.390;2023-06-10T01:33:28;101231.81;;;13.31;79.95
77325;BME280;66387;53.440;10.390;2023-06-10T01:35:56;101238.09;;;13.16;80.77
77325;BME280;66387;53.440;10.390;2023-06-10T01:38:24;101228.63;;;13.08;80.81
77325;BME280;66387;53.440;10.390;2023-06-10T01:40:51;101228.81;;;12.94;81.70
77325;BME280;66387;53.440;10.390;2023-06-10T01:43:17;101232.94;;;13.15;81.13
77325;BME280;66387;53.440;10.390;2023-06-10T01:45:42;101226.09;;;13.02;80.93
77325;BME280;66387;53.440;10.390;2023-06-10T01:48:08;101230.38;;;13.10;81.07
77325;BME280;66387;53.440;10.390;2023-06-10T01:50:33;101228.38;;;13.27;80.29
77325;BME280;66387;53.440;10.390;2023-06-10T01:52:59;101222.31;;;13.27;79.92
77325;BME280;66387;53.440;10.390;2023-06-10T01:55:24;101217.09;;;13.27;79.60
77325;BME280;66387;53.440;10.390;2023-06-10T01:57:50;101222.41;;;13.21;79.65
77325;BME280;66387;53.440;10.390;2023-06-10T02:00:16;101214.09;;;12.90;81.39
77325;BME280;66387;53.440;10.390;2023-06-10T02:02:42;101223.78;;;12.82;81.15
77325;BME280;66387;53.440;10.390;2023-06-10T02:05:07;101223.72;;;12.84;80.71
77325;BME280;66387;53.440;10.390;2023-06-10T02:07:32;101224.50;;;12.93;80.01
77325;BME280;66387;53.440;10.390;2023-06-10T02:09:58;101222.66;;;13.00;80.02
77325;BME280;66387;53.440;10.390;2023-06-10T02:12:23;101225.66;;;12.71;81.67
77325;BME280;66387;53.440;10.390;2023-06-10T02:14:48;101223.72;;;12.85;81.27
77325;BME280;66387;53.440;10.390;2023-06-10T02:17:14;101221.84;;;12.96;80.93
77325;BME280;66387;53.440;10.390;2023-06-10T02:19:40;101219.44;;;12.81;80.77
77325;BME280;66387;53.440;10.390;2023-06-10T02:22:10;101217.84;;;12.69;81.77
77325;BME280;66387;53.440;10.390;2023-06-10T02:24:36;101225.59;;;12.74;81.23
77325;BME280;66387;53.440;10.390;2023-06-10T02:27:03;101226.28;;;12.88;80.54
77325;BME280;66387;53.440;10.390;2023-06-10T02:29:31;101227.16;;;12.87;81.15
77325;BME280;66387;53.440;10.390;2023-06-10T02:31:57;101230.63;;;12.86;80.48
77325;BME280;66387;53.440;10.390;2023-06-10T02:34:22;101225.56;;;12.75;81.04
77325;BME280;66387;53.440;10.390;2023-06-10T02:36:47;101222.00;;;12.84;81.12
77325;BME280;66387;53.440;10.390;2023-06-10T02:39:16;101222.00;;;12.84;80.41
77325;BME280;66387;53.440;10.390;2023-06-10T02:41:41;101234.25;;;12.77;80.99
77325;BME280;66387;53.440;10.390;2023-06-10T02:44:06;101230.78;;;12.77;80.76
77325;BME280;66387;53.440;10.390;2023-06-10T02:46:31;101230.16;;;12.55;81.86
77325;BME280;66387;53.440;10.390;2023-06-10T02:48:57;101231.81;;;12.62;82.03
77325;BME280;66387;53.440;10.390;2023-06-10T02:51:22;101229.13;;;12.70;80.81
77325;BME280;66387;53.440;10.390;2023-06-10T02:53:47;101230.03;;;12.66;80.83
77325;BME280;66387;53.440;10.390;2023-06-10T02:56:15;101231.06;;;12.53;81.98
77325;BME280;66387;53.440;10.390;2023-06-10T02:58:40;101235.19;;;12.70;80.68
77325;BME280;66387;53.440;10.390;2023-06-10T03:01:06;101241.31;;;12.65;80.35
77325;BME280;66387;53.440;10.390;2023-06-10T03:03:32;101238.81;;;12.60;81.31
77325;BME280;66387;53.440;10.390;2023-06-10T03:05:59;101243.97;;;12.62;81.58
77325;BME280;66387;53.440;10.390;2023-06-10T03:08:24;101245.03;;;12.43;81.81
77325;BME280;66387;53.440;10.390;2023-06-10T03:10:50;101240.66;;;12.46;81.68
77325;BME280;66387;53.440;10.390;2023-06-10T03:13:15;101237.09;;;12.55;81.14
77325;BME280;66387;53.440;10.390;2023-06-10T03:15:40;101239.78;;;12.47;81.49
77325;BME280;66387;53.440;10.390;2023-06-10T03:18:06;101242.34;;;12.50;81.35
77325;BME280;66387;53.440;10.390;2023-06-10T03:20:31;101242.22;;;12.62;81.04
77325;BME280;66387;53.440;10.390;2023-06-10T03:22:57;101246.75;;;12.47;81.54
77325;BME280;66387;53.440;10.390;2023-06-10T03:25:22;101253.59;;;12.54;81.07
77325;BME280;66387;53.440;10.390;2023-06-10T03:27:47;101244.97;;;12.52;81.36
77325;BME280;66387;53.440;10.390;2023-06-10T03:30:13;101244.19;;;12.44;81.61
77325;BME280;66387;53.440;10.390;2023-06-10T03:32:39;101250.16;;;12.52;82.00
77325;BME280;66387;53.440;10.390;2023-06-10T03:35:06;101244.97;;;12.52;81.68
77325;BME280;66387;53.440;10.390;2023-06-10T03:37:31;101243.34;;;12.42;81.87
77325;BME280;66387;53.440;10.390;2023-06-10T03:39:57;101236.41;;;12.39;82.08
77325;BME280;66387;53.440;10.390;2023-06-10T03:42:22;101238.22;;;12.33;81.86
77325;BME280;66387;53.440;10.390;2023-06-10T03:44:47;101245.03;;;12.43;82.54
77325;BME280;66387;53.440;10.390;2023-06-10T03:47:12;101248.47;;;12.49;81.74
77325;BME280;66387;53.440;10.390;2023-06-10T03:49:38;101244.88;;;12.58;81.38
77325;BME280;66387;53.440;10.390;2023-06-10T03:52:05;101251.03;;;12.52;81.68
77325;BME280;66387;53.440;10.390;2023-06-10T03:54:31;101240.59;;;12.55;81.88
77325;BME280;66387;53.440;10.390;2023-06-10T03:56:56;101241.50;;;12.50;81.79
77325;BME280;66387;53.440;10.390;2023-06-10T03:59:22;101238.81;;;12.57;81.28
77325;BME280;66387;53.440;10.390;2023-06-10T04:01:47;101246.63;;;12.59;81.58
77325;BME280;66387;53.440;10.390;2023-06-10T04:04:15;101245.63;;;12.69;81.51
77325;BME280;66387;53.440;10.390;2023-06-10T04:06:43;101246.44;;;12.74;81.00
77325;BME280;66387;53.440;10.390;2023-06-10T04:09:09;101249.91;;;12.73;81.53
77325;BME280;66387;53.440;10.390;2023-06-10T04:11:35;101249.19;;;12.62;81.67
77325;BME280;66387;53.440;10.390;2023-06-10T04:14:00;101250.88;;;12.66;81.84
77325;BME280;66387;53.440;10.390;2023-06-10T04:16:26;101242.94;;;12.75;82.18
77325;BME280;66387;53.440;10.390;2023-06-10T04:18:51;101251.47;;;12.86;81.27
77325;BME280;66387;53.440;10.390;2023-06-10T04:21:17;101245.44;;;12.84;81.35
77325;BME280;66387;53.440;10.390;2023-06-10T04:23:42;101241.84;;;12.94;80.64
77325;BME280;66387;53.440;10.390;2023-06-10T04:26:07;101244.44;;;12.94;81.27
77325;BME280;66387;53.440;10.390;2023-06-10T04:28:32;101242.75;;;12.93;81.57
77325;BME280;66387;53.440;10.390;2023-06-10T04:30:58;101243.56;;;12.95;81.06
77325;BME280;66387;53.440;10.390;2023-06-10T04:33:23;101246.09;;;13.01;81.24
77325;BME280;66387;53.440;10.390;2023-06-10T04:35:50;101246.78;;;13.15;80.94
77325;BME280;66387;53.440;10.390;2023-06-10T04:38:15;101252.00;;;13.15;81.32
77325;BME280;66387;53.440;10.390;2023-06-10T04:40:40;101252.81;;;13.20;81.31
77325;BME280;66387;53.440;10.390;2023-06-10T04:43:06;101257.06;;;13.29;80.56
77325;BME280;66387;53.440;10.390;2023-06-10T04:45:31;101250.81;;;13.38;81.27
77325;BME280;66387;53.440;10.390;2023-06-10T04:47:56;101250.66;;;13.48;80.86
77325;BME280;66387;53.440;10.390;2023-06-10T04:50:23;101245.66;;;13.35;81.96
77325;BME280;66387;53.440;10.390;2023-06-10T04:52:48;101262.00;;;13.47;80.95
77325;BME280;66387;53.440;10.390;2023-06-10T04:55:13;101253.38;;;13.44;81.91
77325;BME280;66387;53.440;10.390;2023-06-10T04:57:38;101254.09;;;13.52;81.98
77325;BME280;66387;53.440;10.390;2023-06-10T05:00:04;101252.16;;;13.66;80.78
77325;BME280;66387;53.440;10.390;2023-06-10T05:02:31;101253.97;;;13.61;81.52
77325;BME280;66387;53.440;10.390;2023-06-10T05:04:56;101251.19;;;13.73;81.29
77325;BME280;66387;53.440;10.390;2023-06-10T05:07:23;101252.75;;;13.83;80.64
77325;BME280;66387;53.440;10.390;2023-06-10T05:09:48;101257.91;;;13.85;80.61
77325;BME280;66387;53.440;10.390;2023-06-10T05:12:13;101261.34;;;13.90;81.13
77325;BME280;66387;53.440;10.390;2023-06-10T05:14:38;101260.47;;;13.89;81.99
77325;BME280;66387;53.440;10.390;2023-06-10T05:17:04;101262.91;;;14.00;81.17
77325;BME280;66387;53.440;10.390;2023-06-10T05:19:31;101265.63;;;13.92;80.69
77325;BME280;66387;53.440;10.390;2023-06-10T05:21:56;101267.16;;;14.05;81.00
77325;BME280;66387;53.440;10.390;2023-06-10T05:24:22;101265.19;;;14.19;79.96
77325;BME280;66387;53.440;10.390;2023-06-10T05:26:48;101260.69;;;14.26;80.23
77325;BME280;66387;53.440;10.390;2023-06-10T05:29:13;101260.47;;;14.40;79.47
77325;BME280;66387;53.440;10.390;2023-06-10T05:31:40;101262.22;;;14.41;80.17
77325;BME280;66387;53.440;10.390;2023-06-10T05:34:05;101262.22;;;14.39;79.86
77325;BME280;66387;53.440;10.390;2023-06-10T05:36:31;101269.91;;;14.48;80.17
77325;BME280;66387;53.440;10.390;2023-06-10T05:38:57;101263.59;;;14.60;78.70
77325;BME280;66387;53.440;10.390;2023-06-10T05:41:22;101266.41;;;14.49;79.98
77325;BME280;66387;53.440;10.390;2023-06-10T05:43:48;101260.25;;;14.53;79.88
77325;BME280;66387;53.440;10.390;2023-06-10T05:46:13;101260.06;;;14.61;79.25
77325;BME280;66387;53.440;10.390;2023-06-10T05:48:38;101252.94;;;14.69;79.32
77325;BME280;66387;53.440;10.390;2023-06-10T05:51:03;101257.28;;;14.70;78.38
77325;BME280;66387;53.440;10.390;2023-06-10T05:53:29;101252.84;;;14.75;78.73
77325;BME280;66387;53.440;10.390;2023-06-10T05:55:55;101246.75;;;14.73;78.52
77325;BME280;66387;53.440;10.390;2023-06-10T05:58:23;101244.88;;;14.81;77.89
77325;BME280;66387;53.440;10.390;2023-06-10T06:00:48;101242.09;;;14.89;78.16
77325;BME280;66387;53.440;10.390;2023-06-10T06:03:13;101239.44;;;14.90;78.49
77325;BME280;66387;53.440;10.390;2023-06-10T06:05:39;101233.00;;;15.06;77.47
77325;BME280;66387;53.440;10.390;2023-06-10T06:08:05;101251.94;;;15.17;77.23
77325;BME280;66387;53.440;10.390;2023-06-10T06:10:30;101244.09;;;15.16;77.92
77325;BME280;66387;53.440;10.390;2023-06-10T06:12:56;101243.03;;;15.26;77.26
77325;BME280;66387;53.440;10.390;2023-06-10T06:15:21;101235.06;;;15.31;77.43
77325;BME280;66387;53.440;10.390;2023-06-10T06:17:46;101238.28;;;15.43;76.90
77325;BME280;66387;53.440;10.390;2023-06-10T06:20:12;101237.28;;;15.50;76.77
77325;BME280;66387;53.440;10.390;2023-06-10T06:22:37;101236.13;;;15.62;75.80
77325;BME280;66387;53.440;10.390;2023-06-10T06:25:02;101243.00;;;15.66;75.18
77325;BME280;66387;53.440;10.390;2023-06-10T06:27:28;101241.00;;;15.77;75.70
77325;BME280;66387;53.440;10.390;2023-06-10T06:29:53;101245.09;;;15.87;75.05
77325;BME280;66387;53.440;10.390;2023-06-10T06:32:18;101244.22;;;15.88;74.30
77325;BME280;66387;53.440;10.390;2023-06-10T06:34:44;101248.31;;;15.98;75.51
77325;BME280;66387;53.440;10.390;2023-06-10T06:37:09;101250.75;;;16.06;74.57
77325;BME280;66387;53.440;10.390;2023-06-10T06:39:35;101244.47;;;16.11;74.99
77325;BME280;66387;53.440;10.390;2023-06-10T06:42:00;101248.66;;;16.18;73.74
77325;BME280;66387;53.440;10.390;2023-06-10T06:44:25;101243.97;;;16.30;73.76
77325;BME280;66387;53.440;10.390;2023-06-10T06:46:50;101245.59;;;16.35;73.11
77325;BME280;66387;53.440;10.390;2023-06-10T06:49:16;101247.16;;;16.42;72.72
77325;BME280;66387;53.440;10.390;2023-06-10T06:51:41;101241.56;;;16.56;73.58
77325;BME280;66387;53.440;10.390;2023-06-10T06:54:06;101233.41;;;16.65;72.59
77325;BME280;66387;53.440;10.390;2023-06-10T06:56:31;101241.91;;;16.75;72.48
77325;BME280;66387;53.440;10.390;2023-06-10T06:58:57;101243.34;;;16.85;71.23
77325;BME280;66387;53.440;10.390;2023-06-10T07:01:22;101237.88;;;16.92;71.50
77325;BME280;66387;53.440;10.390;2023-06-10T07:03:47;101245.56;;;16.98;71.82
77325;BME280;66387;53.440;10.390;2023-06-10T07:06:13;101257.97;;;17.23;70.46
77325;BME280;66387;53.440;10.390;2023-06-10T07:08:38;101253.16;;;17.37;69.95
77325;BME280;66387;53.440;10.390;2023-06-10T07:11:03;101248.72;;;17.39;69.23
77325;BME280;66387;53.440;10.390;2023-06-10T07:13:28;101258.38;;;17.66;69.36
77325;BME280;66387;53.440;10.390;2023-06-10T07:15:54;101264.84;;;17.82;68.34
77325;BME280;66387;53.440;10.390;2023-06-10T07:18:19;101264.75;;;17.85;67.88
77325;BME280;66387;53.440;10.390;2023-06-10T07:20:44;101258.34;;;17.94;67.59
77325;BME280;66387;53.440;10.390;2023-06-10T07:23:10;101262.84;;;18.17;67.89
77325;BME280;66387;53.440;10.390;2023-06-10T07:25:35;101267.50;;;18.33;67.72
77325;BME280;66387;53.440;10.390;2023-06-10T07:28:00;101264.72;;;18.38;66.37
77325;BME280;66387;53.440;10.390;2023-06-10T07:30:25;101262.72;;;18.44;66.03
77325;BME280;66387;53.440;10.390;2023-06-10T07:32:51;101257.44;;;18.46;65.89
77325;BME280;66387;53.440;10.390;2023-06-10T07:35:17;101258.13;;;18.51;66.18
77325;BME280;66387;53.440;10.390;2023-06-10T07:37:42;101258.44;;;18.67;66.42
77325;BME280;66387;53.440;10.390;2023-06-10T07:40:08;101254.75;;;18.72;65.17
77325;BME280;66387;53.440;10.390;2023-06-10T07:42:35;101267.16;;;18.92;65.57
77325;BME280;66387;53.440;10.390;2023-06-10T07:45:00;101259.69;;;19.04;64.35
77325;BME280;66387;53.440;10.390;2023-06-10T07:47:26;101259.41;;;19.12;63.83
77325;BME280;66387;53.440;10.390;2023-06-10T07:49:51;101271.91;;;19.29;63.48
77325;BME280;66387;53.440;10.390;2023-06-10T07:52:16;101262.09;;;19.32;63.73
77325;BME280;66387;53.440;10.390;2023-06-10T07:54:41;101258.38;;;19.38;63.06
77325;BME280;66387;53.440;10.390;2023-06-10T07:57:07;101265.09;;;19.46;62.51
77325;BME280;66387;53.440;10.390;2023-06-10T07:59:32;101261.53;;;19.47;62.96
77325;BME280;66387;53.440;10.390;2023-06-10T08:01:58;101269.63;;;19.65;63.31
77325;BME280;66387;53.440;10.390;2023-06-10T08:04:23;101262.53;;;19.67;62.27
77325;BME280;66387;53.440;10.390;2023-06-10T08:06:49;101267.22;;;19.80;62.33
77325;BME280;66387;53.440;10.390;2023-06-10T08:09:14;101268.22;;;19.78;61.94
77325;BME280;66387;53.440;10.390;2023-06-10T08:11:39;101266.31;;;19.81;61.47
77325;BME280;66387;53.440;10.390;2023-06-10T08:14:05;101253.66;;;19.89;62.10
77325;BME280;66387;53.440;10.390;2023-06-10T08:16:30;101258.03;;;19.90;61.53
77325;BME280;66387;53.440;10.390;2023-06-10T08:18:55;101252.91;;;20.07;61.53
77325;BME280;66387;53.440;10.390;2023-06-10T08:21:20;101257.53;;;20.23;60.95
77325;BME280;66387;53.440;10.390;2023-06-10T08:23:46;101257.50;;;20.44;60.62
77325;BME280;66387;53.440;10.390;2023-06-10T08:26:11;101261.66;;;20.50;59.55
77325;BME280;66387;53.440;10.390;2023-06-10T08:28:36;101254.84;;;20.65;59.41
77325;BME280;66387;53.440;10.390;2023-06-10T08:31:02;101254.75;;;20.66;60.24
77325;BME280;66387;53.440;10.390;2023-06-10T08:33:27;101247.94;;;20.81;59.49
77325;BME280;66387;53.440;10.390;2023-06-10T08:35:52;101254.75;;;20.86;58.91
77325;BME280;66387;53.440;10.390;2023-06-10T08:38:17;101255.97;;;20.98;58.21
77325;BME280;66387;53.440;10.390;2023-06-10T08:40:42;101253.75;;;21.08;58.45
77325;BME280;66387;53.440;10.390;2023-06-10T08:45:42;101259.41;;;21.37;57.43
77325;BME280;66387;53.440;10.390;2023-06-10T08:48:10;101266.03;;;21.46;57.78
77325;BME280;66387;53.440;10.390;2023-06-10T08:50:37;101256.59;;;21.59;57.21
77325;BME280;66387;53.440;10.390;2023-06-10T08:53:05;101253.88;;;21.61;57.27
77325;BME280;66387;53.440;10.390;2023-06-10T08:55:36;101244.56;;;21.71;57.13
77325;BME280;66387;53.440;10.390;2023-06-10T08:58:03;101248.09;;;21.88;56.96
77325;BME280;66387;53.440;10.390;2023-06-10T09:00:29;101242.06;;;22.04;56.47
77325;BME280;66387;53.440;10.390;2023-06-10T09:02:56;101251.78;;;22.03;56.29
77325;BME280;66387;53.440;10.390;2023-06-10T09:05:22;101249.31;;;22.17;56.52
77325;BME280;66387;53.440;10.390;2023-06-10T09:07:48;101253.72;;;22.34;56.00
77325;BME280;66387;53.440;10.390;2023-06-10T09:10:14;101247.16;;;22.41;55.36
77325;BME280;66387;53.440;10.390;2023-06-10T09:12:39;101251.38;;;22.45;55.34
77325;BME280;66387;53.440;10.390;2023-06-10T09:15:05;101247.22;;;22.57;54.81
77325;BME280;66387;53.440;10.390;2023-06-10T09:17:31;101246.44;;;22.72;55.23
77325;BME280;66387;53.440;10.390;2023-06-10T09:19:56;101238.88;;;22.81;55.37
77325;BME280;66387;53.440;10.390;2023-06-10T09:22:23;101240.94;;;23.08;53.83
77325;BME280;66387;53.440;10.390;2023-06-10T09:24:49;101244.63;;;23.05;53.87
77325;BME280;66387;53.440;10.390;2023-06-10T09:27:14;101249.25;;;23.17;53.38
77325;BME280;66387;53.440;10.390;2023-06-10T09:29:53;101251.47;;;23.09;53.19
77325;BME280;66387;53.440;10.390;2023-06-10T09:32:19;101243.94;;;23.17;54.06
77325;BME280;66387;53.440;10.390;2023-06-10T09:34:45;101246.09;;;23.26;54.67
77325;BME280;66387;53.440;10.390;2023-06-10T09:37:11;101240.38;;;23.34;53.94
77325;BME280;66387;53.440;10.390;2023-06-10T09:39:39;101245.66;;;23.65;53.97
77325;BME280;66387;53.440;10.390;2023-06-10T09:42:25;101246.81;;;23.91;53.10
77325;BME280;66387;53.440;10.390;2023-06-10T09:44:51;101244.69;;;24.12;52.65
77325;BME280;66387;53.440;10.390;2023-06-10T09:47:22;101241.09;;;24.13;51.64
77325;BME280;66387;53.440;10.390;2023-06-10T09:49:51;101242.38;;;24.21;51.37
77325;BME280;66387;53.440;10.390;2023-06-10T09:52:26;101240.78;;;24.19;51.81
77325;BME280;66387;53.440;10.390;2023-06-10T09:54:52;101238.16;;;24.33;51.19
77325;BME280;66387;53.440;10.390;2023-06-10T09:57:18;101239.56;;;24.38;50.94
77325;BME280;66387;53.440;10.390;2023-06-10T09:59:45;101230.19;;;24.33;50.84
77325;BME280;66387;53.440;10.390;2023-06-10T10:02:17;101230.66;;;24.25;51.18
77325;BME280;66387;53.440;10.390;2023-06-10T10:04:43;101227.63;;;24.31;51.26
77325;BME280;66387;53.440;10.390;2023-06-10T10:07:09;101242.34;;;24.51;51.74
77325;BME280;66387;53.440;10.390;2023-06-10T10:09:38;101235.22;;;24.80;51.04
77325;BME280;66387;53.440;10.390;2023-06-10T10:12:11;101231.53;;;24.82;50.93
77325;BME280;66387;53.440;10.390;2023-06-10T10:14:38;101230.41;;;25.01;50.44
77325;BME280;66387;53.440;10.390;2023-06-10T10:17:15;101237.50;;;25.14;50.39
77325;BME280;66387;53.440;10.390;2023-06-10T10:19:46;101233.13;;;25.27;49.76
77325;BME280;66387;53.440;10.390;2023-06-10T10:22:19;101225.88;;;25.29;49.52
77325;BME280;66387;53.440;10.390;2023-06-10T10:24:55;101226.00;;;25.14;50.07
77325;BME280;66387;53.440;10.390;2023-06-10T10:27:27;101228.91;;;25.37;49.81
77325;BME280;66387;53.440;10.390;2023-06-10T10:29:54;101244.34;;;25.45;49.28
77325;BME280;66387;53.440;10.390;2023-06-10T10:32:32;101225.44;;;25.64;49.48
77325;BME280;66387;53.440;10.390;2023-06-10T10:35:13;101237.75;;;25.65;49.15
77325;BME280;66387;53.440;10.390;2023-06-10T10:37:41;101236.53;;;25.83;48.36
77325;BME280;66387;53.440;10.390;2023-06-10T10:40:07;101236.28;;;26.13;49.08
77325;BME280;66387;53.440;10.390;2023-06-10T10:42:34;101234.09;;;26.32;48.41
77325;BME280;66387;53.440;10.390;2023-06-10T10:45:00;101234.09;;;26.32;48.23
77325;BME280;66387;53.440;10.390;2023-06-10T10:47:27;101239.84;;;26.26;46.86
77325;BME280;66387;53.440;10.390;2023-06-10T10:49:54;101236.22;;;26.27;48.21
77325;BME280;66387;53.440;10.390;2023-06-10T10:52:20;101238.38;;;26.47;48.43
77325;BME280;66387;53.440;10.390;2023-06-10T10:54:46;101234.63;;;26.50;46.67
77325;BME280;66387;53.440;10.390;2023-06-10T10:59:57;101230.78;;;26.79;47.26
77325;BME280;66387;53.440;10.390;2023-06-10T11:02:36;101223.31;;;27.09;45.65
77325;BME280;66387;53.440;10.390;2023-06-10T11:05:04;101219.78;;;27.09;45.26
77325;BME280;66387;53.440;10.390;2023-06-10T11:07:33;101224.66;;;27.15;44.47
77325;BME280;66387;53.440;10.390;2023-06-10T11:10:01;101219.00;;;27.19;44.50
77325;BME280;66387;53.440;10.390;2023-06-10T11:15:05;101225.88;;;27.35;43.94
77325;BME280;66387;53.440;10.390;2023-06-10T11:17:31;101228.81;;;27.55;44.41
77325;BME280;66387;53.440;10.390;2023-06-10T11:19:58;101224.88;;;27.48;43.92
77325;BME280;66387;53.440;10.390;2023-06-10T11:22:24;101226.28;;;27.41;43.70
77325;BME280;66387;53.440;10.390;2023-06-10T11:24:52;101222.66;;;27.42;43.91
77325;BME280;66387;53.440;10.390;2023-06-10T11:27:22;101226.28;;;27.41;43.89
77325;BME280;66387;53.440;10.390;2023-06-10T11:32:29;101214.22;;;27.72;43.48
77325;BME280;66387;53.440;10.390;2023-06-10T11:34:56;101215.09;;;27.84;44.25
77325;BME280;66387;53.440;10.390;2023-06-10T11:37:21;101210.19;;;28.01;42.91
77325;BME280;66387;53.440;10.390;2023-06-10T11:39:47;101209.09;;;28.04;43.05
77325;BME280;66387;53.440;10.390;2023-06-10T11:42:12;101204.53;;;28.17;42.41
77325;BME280;66387;53.440;10.390;2023-06-10T11:44:38;101199.94;;;28.08;42.53
77325;BME280;66387;53.440;10.390;2023-06-10T11:47:04;101205.94;;;27.99;42.89
77325;BME280;66387;53.440;10.390;2023-06-10T11:49:29;101207.31;;;27.81;43.19
77325;BME280;66387;53.440;10.390;2023-06-10T11:51:54;101204.44;;;27.95;42.83
77325;BME280;66387;53.440;10.390;2023-06-10T11:54:20;101200.91;;;28.18;42.31
77325;BME280;66387;53.440;10.390;2023-06-10T11:56:47;101191.94;;;28.19;42.25
77325;BME280;66387;53.440;10.390;2023-06-10T11:59:13;101192.44;;;28.35;41.82
77325;BME280;66387;53.440;10.390;2023-06-10T12:01:43;101187.34;;;28.43;41.25
77325;BME280;66387;53.440;10.390;2023-06-10T12:04:11;101197.53;;;28.60;41.71
77325;BME280;66387;53.440;10.390;2023-06-10T12:06:41;101192.59;;;28.78;41.27
77325;BME280;66387;53.440;10.390;2023-06-10T12:09:13;101203.50;;;28.86;40.93
77325;BME280;66387;53.440;10.390;2023-06-10T12:11:39;101202.78;;;28.95;40.56
77325;BME280;66387;53.440;10.390;2023-06-10T12:14:05;101198.06;;;28.99;39.00
77325;BME280;66387;53.440;10.390;2023-06-10T12:16:31;101194.19;;;28.81;39.79
77325;BME280;66387;53.440;10.390;2023-06-10T12:19:01;101195.16;;;28.80;39.99
77325;BME280;66387;53.440;10.390;2023-06-10T12:21:28;101191.94;;;29.08;40.16
77325;BME280;66387;53.440;10.390;2023-06-10T12:24:09;101190.94;;;29.20;39.58
77325;BME280;66387;53.440;10.390;2023-06-10T12:26:37;101190.69;;;29.23;40.34
77325;BME280;66387;53.440;10.390;2023-06-10T12:29:19;101186.00;;;29.47;39.44
77325;BME280;66387;53.440;10.390;2023-06-10T12:31:56;101188.59;;;29.69;38.40
77325;BME280;66387;53.440;10.390;2023-06-10T12:34:33;101179.91;;;29.56;37.65
77325;BME280;66387;53.440;10.390;2023-06-10T12:37:00;101176.06;;;29.49;38.72
77325;BME280;66387;53.440;10.390;2023-06-10T12:39:25;101177.84;;;29.60;38.40
77325;BME280;66387;53.440;10.390;2023-06-10T12:41:51;101176.38;;;29.88;38.00
77325;BME280;66387;53.440;10.390;2023-06-10T12:44:17;101182.91;;;29.95;37.62
77325;BME280;66387;53.440;10.390;2023-06-10T12:46:42;101175.94;;;30.03;37.47
77325;BME280;66387;53.440;10.390;2023-06-10T12:49:07;101167.81;;;30.14;36.71
77325;BME280;66387;53.440;10.390;2023-06-10T12:51:32;101167.09;;;29.92;36.22